createdAt,value
2019-05-05T00:01:45.044Z,5.10
2019-05-05T00:04:48.058Z,5.10
2019-05-05T00:07:21.759Z,5.10
2019-05-05T00:09:50.467Z,5.20
2019-05-05T00:12:56.223Z,5.20
2019-05-05T00:15:55.973Z,5.30
2019-05-05T00:18:27.128Z,5.30
2019-05-05T00:20:55.848Z,5.30
2019-05-05T00:23:25.075Z,5.30
2019-05-05T00:25:55.276Z,5.40
2019-05-05T00:28:24.859Z,5.40
2019-05-05T00:30:55.373Z,5.30
2019-05-05T00:33:24.901Z,5.30
2019-05-05T00:35:54.490Z,5.30
2019-05-05T00:38:24.860Z,5.30
2019-05-05T00:40:54.988Z,5.30
2019-05-05T00:43:25.298Z,5.30
2019-05-05T00:45:56.972Z,5.30
2019-05-05T00:48:31.663Z,5.30
2019-05-05T00:51:00.415Z,5.30
2019-05-05T00:53:29.208Z,5.30
2019-05-05T00:55:57.906Z,5.30
2019-05-05T00:58:27.906Z,5.20
2019-05-05T01:01:19.395Z,5.20
2019-05-05T01:03:48.192Z,5.30
2019-05-05T01:06:28.555Z,5.20
2019-05-05T01:08:57.273Z,5.20
2019-05-05T01:11:26.262Z,5.20
2019-05-05T01:13:55.098Z,5.20
2019-05-05T01:16:24.766Z,5.20
2019-05-05T01:18:55.369Z,5.20
2019-05-05T01:21:24.521Z,5.20
2019-05-05T01:23:54.835Z,5.20
2019-05-05T01:26:24.899Z,5.20
2019-05-05T01:28:53.775Z,5.10
2019-05-05T01:31:25.131Z,5.10
2019-05-05T01:34:15.131Z,5.20
2019-05-05T01:36:45.209Z,5.20
2019-05-05T01:39:41.940Z,5.20
2019-05-05T01:42:14.306Z,5.20
2019-05-05T01:44:44.809Z,5.20
2019-05-05T01:47:14.740Z,5.20
2019-05-05T01:49:45.221Z,5.10
2019-05-05T01:52:14.942Z,5.10
2019-05-05T01:54:44.637Z,5.10
2019-05-05T01:57:14.847Z,5.10
2019-05-05T01:59:44.776Z,5.00
2019-05-05T02:02:14.591Z,5.00
2019-05-05T02:04:44.691Z,4.90
2019-05-05T02:07:14.521Z,4.90
2019-05-05T02:09:44.817Z,4.80
2019-05-05T02:12:15.882Z,4.80
2019-05-05T02:14:44.549Z,4.70
2019-05-05T02:17:14.362Z,4.70
2019-05-05T02:19:44.343Z,4.70
2019-05-05T02:22:14.654Z,4.70
2019-05-05T02:24:44.446Z,4.70
2019-05-05T02:27:14.553Z,4.80
2019-05-05T02:29:56.203Z,4.80
2019-05-05T02:32:37.850Z,4.90
2019-05-05T02:35:10.096Z,4.90
2019-05-05T02:37:38.909Z,4.90
2019-05-05T02:40:08.828Z,4.90
2019-05-05T02:42:37.540Z,4.90
2019-05-05T02:45:07.936Z,4.90
2019-05-05T02:47:55.565Z,4.80
2019-05-05T02:50:25.084Z,4.80
2019-05-05T02:52:54.066Z,4.90
2019-05-05T02:55:23.474Z,4.90
2019-05-05T02:57:54.328Z,4.90
2019-05-05T03:00:40.434Z,4.90
2019-05-05T03:03:10.004Z,4.90
2019-05-05T03:05:38.723Z,4.90
2019-05-05T03:08:07.455Z,4.90
2019-05-05T03:10:36.163Z,4.90
2019-05-05T03:13:05.715Z,4.90
2019-05-05T03:15:50.215Z,4.90
2019-05-05T03:18:18.951Z,4.90
2019-05-05T03:21:01.260Z,4.90
2019-05-05T03:23:18.218Z,5.00
2019-05-05T03:25:46.997Z,5.00
2019-05-05T03:28:15.805Z,5.00
2019-05-05T03:30:45.548Z,5.00
2019-05-05T03:33:15.937Z,5.00
2019-05-05T03:35:45.397Z,5.10
2019-05-05T03:38:14.278Z,5.10
2019-05-05T03:40:45.242Z,5.10
2019-05-05T03:43:19.990Z,5.10
2019-05-05T03:45:54.475Z,5.10
2019-05-05T03:48:24.111Z,5.10
2019-05-05T03:50:54.042Z,5.10
2019-05-05T03:53:24.568Z,5.10
2019-05-05T03:55:54.499Z,5.20
2019-05-05T03:58:24.063Z,5.20
2019-05-05T04:01:34.603Z,5.20
2019-05-05T04:04:24.193Z,5.20
2019-05-05T04:06:54.009Z,5.20
2019-05-05T04:09:24.289Z,5.20
2019-05-05T04:11:53.953Z,5.20
2019-05-05T04:14:25.018Z,5.20
2019-05-05T04:17:15.152Z,5.20
2019-05-05T04:19:46.676Z,5.20
2019-05-05T04:22:15.392Z,5.10
2019-05-05T04:24:44.113Z,5.10
2019-05-05T04:27:14.665Z,5.10
2019-05-05T04:29:44.067Z,5.00
2019-05-05T04:32:14.008Z,5.00
2019-05-05T04:34:43.847Z,5.00
2019-05-05T04:37:14.983Z,4.90
2019-05-05T04:39:44.428Z,4.90
2019-05-05T04:42:14.163Z,4.80
2019-05-05T04:44:44.894Z,4.80
2019-05-05T04:47:19.671Z,4.80
2019-05-05T04:49:54.814Z,4.90
2019-05-05T04:52:24.381Z,4.90
2019-05-05T04:54:55.713Z,4.90
2019-05-05T04:57:24.471Z,5.00
2019-05-05T04:59:54.065Z,5.00
2019-05-05T05:02:51.301Z,5.10
2019-05-05T05:05:25.160Z,5.10
2019-05-05T05:07:55.401Z,5.20
2019-05-05T05:10:24.435Z,5.20
2019-05-05T05:12:54.026Z,5.20
2019-05-05T05:15:23.895Z,5.20
2019-05-05T05:17:59.607Z,5.30
2019-05-05T05:20:28.315Z,5.30
2019-05-05T05:22:57.025Z,5.30
2019-05-05T05:25:25.751Z,5.30
2019-05-05T05:27:54.478Z,5.30
2019-05-05T05:30:24.279Z,5.30
2019-05-05T05:32:53.882Z,5.30
2019-05-05T05:35:24.440Z,5.30
2019-05-05T05:37:53.978Z,5.40
2019-05-05T05:40:44.476Z,5.50
2019-05-05T05:43:17.167Z,5.60
2019-05-05T05:45:54.163Z,5.70
2019-05-05T05:48:36.856Z,5.80
2019-05-05T05:51:10.888Z,5.80
2019-05-05T05:53:39.630Z,5.90
2019-05-05T05:56:08.342Z,5.90
2019-05-05T05:58:37.079Z,6.00
2019-05-05T06:01:05.835Z,6.10
2019-05-05T06:03:34.572Z,6.20
2019-05-05T06:06:04.690Z,6.40
2019-05-05T06:08:34.714Z,6.50
2019-05-05T06:11:04.436Z,6.60
2019-05-05T06:13:33.735Z,6.60
2019-05-05T06:16:04.273Z,6.70
2019-05-05T06:18:34.557Z,6.60
2019-05-05T06:21:04.454Z,6.60
2019-05-05T06:23:34.366Z,6.60
2019-05-05T06:26:06.722Z,6.60
2019-05-05T06:28:34.294Z,6.60
2019-05-05T06:31:04.784Z,6.70
2019-05-05T06:33:34.729Z,6.70
2019-05-05T06:36:03.974Z,6.60
2019-05-05T06:38:34.467Z,6.70
2019-05-05T06:41:11.445Z,7.10
2019-05-05T06:44:03.759Z,7.30
2019-05-05T06:46:53.620Z,7.30
2019-05-05T06:49:23.795Z,7.20
2019-05-05T06:51:54.672Z,7.10
2019-05-05T06:54:24.164Z,7.00
2019-05-05T06:56:53.862Z,6.90
2019-05-05T06:59:24.320Z,6.80
2019-05-05T07:01:53.666Z,6.70
2019-05-05T07:04:24.421Z,6.60
2019-05-05T07:06:56.285Z,6.50
2019-05-05T07:09:24.470Z,6.50
2019-05-05T07:11:54.126Z,6.40
2019-05-05T07:14:23.635Z,6.50
2019-05-05T07:16:54.442Z,6.50
2019-05-05T07:19:23.946Z,6.50
2019-05-05T07:21:53.868Z,6.60
2019-05-05T07:24:23.842Z,6.70
2019-05-05T07:26:54.205Z,6.80
2019-05-05T07:29:23.911Z,7.00
2019-05-05T07:31:54.536Z,7.00
2019-05-05T07:34:24.971Z,7.10
2019-05-05T07:36:54.823Z,7.10
2019-05-05T07:39:23.954Z,7.30
2019-05-05T07:41:54.150Z,7.40
2019-05-05T07:44:29.113Z,7.50
2019-05-05T07:46:54.345Z,7.50
2019-05-05T07:49:24.467Z,7.50
2019-05-05T07:51:54.738Z,7.40
2019-05-05T07:54:23.782Z,7.40
2019-05-05T07:56:53.780Z,7.30
2019-05-05T07:59:23.826Z,7.20
2019-05-05T08:01:54.830Z,7.20
2019-05-05T08:04:43.777Z,7.20
2019-05-05T08:07:14.749Z,7.10
2019-05-05T08:09:44.456Z,7.00
2019-05-05T08:12:13.813Z,7.00
2019-05-05T08:14:44.447Z,7.00
2019-05-05T08:17:27.959Z,7.10
2019-05-05T08:20:01.006Z,7.10
2019-05-05T08:22:29.770Z,7.20
2019-05-05T08:25:32.993Z,7.50
2019-05-05T08:28:08.104Z,7.60
2019-05-05T08:30:51.350Z,7.80
2019-05-05T08:33:20.075Z,7.90
2019-05-05T08:35:48.867Z,8.00
2019-05-05T08:38:17.603Z,8.10
2019-05-05T08:40:46.314Z,8.10
2019-05-05T08:43:15.315Z,8.20
2019-05-05T08:46:04.898Z,8.10
2019-05-05T08:48:34.236Z,8.10
2019-05-05T08:51:04.903Z,8.20
2019-05-05T08:53:44.108Z,8.30
2019-05-05T08:56:04.165Z,8.50
2019-05-05T08:58:34.375Z,8.60
2019-05-05T09:01:04.380Z,8.80
2019-05-05T09:03:33.746Z,9.00
2019-05-05T09:06:04.518Z,8.90
2019-05-05T09:08:34.738Z,8.50
2019-05-05T09:11:04.737Z,8.20
2019-05-05T09:13:34.116Z,7.80
2019-05-05T09:16:03.760Z,7.60
2019-05-05T09:18:33.984Z,7.40
2019-05-05T09:21:04.386Z,7.20
2019-05-05T09:23:34.906Z,7.20
2019-05-05T09:26:15.423Z,7.40
2019-05-05T09:28:53.919Z,7.50
2019-05-05T09:31:23.979Z,8.00
2019-05-05T09:33:53.653Z,8.50
2019-05-05T09:36:24.316Z,9.20
2019-05-05T09:38:54.028Z,9.80
2019-05-05T09:41:23.546Z,10.20
2019-05-05T09:43:53.923Z,10.80
2019-05-05T09:46:23.523Z,11.40
2019-05-05T09:48:54.185Z,12.10
2019-05-05T09:51:24.155Z,12.80
2019-05-05T09:53:54.211Z,13.10
2019-05-05T09:56:23.651Z,13.20
2019-05-05T09:58:54.389Z,13.50
2019-05-05T10:01:24.573Z,14.00
2019-05-05T10:03:55.528Z,14.30
2019-05-05T10:06:24.436Z,14.40
2019-05-05T10:08:53.843Z,14.50
2019-05-05T10:11:23.819Z,14.60
2019-05-05T10:13:54.552Z,14.50
2019-05-05T10:16:23.555Z,14.40
2019-05-05T10:18:54.185Z,14.20
2019-05-05T10:21:24.674Z,14.30
2019-05-05T10:23:55.244Z,13.90
2019-05-05T10:26:23.983Z,12.90
2019-05-05T10:28:53.717Z,11.70
2019-05-05T10:31:24.124Z,10.70
2019-05-05T10:33:56.961Z,10.20
2019-05-05T10:36:25.686Z,9.90
2019-05-05T10:38:58.902Z,9.60
2019-05-05T10:41:27.614Z,9.30
2019-05-05T10:43:56.347Z,9.20
2019-05-05T10:46:25.042Z,9.30
2019-05-05T10:48:53.869Z,9.30
2019-05-05T10:51:23.769Z,9.40
2019-05-05T10:53:54.501Z,9.40
2019-05-05T10:56:24.141Z,9.40
2019-05-05T10:58:54.590Z,9.50
2019-05-05T11:01:23.646Z,9.60
2019-05-05T11:04:04.607Z,9.80
2019-05-05T11:06:33.335Z,10.00
2019-05-05T11:09:04.403Z,10.00
2019-05-05T11:11:34.399Z,10.20
2019-05-05T11:14:03.755Z,10.40
2019-05-05T11:16:32.598Z,10.80
2019-05-05T11:19:01.442Z,11.00
2019-05-05T11:21:30.238Z,11.10
2019-05-05T11:23:58.960Z,11.20
2019-05-05T11:26:27.695Z,11.20
2019-05-05T11:28:56.451Z,11.30
2019-05-05T11:31:26.481Z,11.30
2019-05-05T11:34:07.633Z,11.30
2019-05-05T11:36:49.350Z,11.40
2019-05-05T11:39:18.098Z,11.60
2019-05-05T11:41:46.819Z,11.50
2019-05-05T11:44:15.550Z,11.60
2019-05-05T11:46:44.458Z,11.60
2019-05-05T11:49:13.899Z,11.50
2019-05-05T11:52:04.462Z,11.50
2019-05-05T11:54:32.711Z,11.40
2019-05-05T11:57:01.451Z,11.40
2019-05-05T11:59:30.443Z,11.50
2019-05-05T12:01:59.171Z,11.60
2019-05-05T12:04:27.892Z,11.60
2019-05-05T12:06:56.650Z,11.70
2019-05-05T12:09:34.938Z,11.90
2019-05-05T12:12:03.833Z,12.00
2019-05-05T12:14:33.081Z,12.10
2019-05-05T12:17:01.791Z,12.00
2019-05-05T12:19:30.524Z,11.90
2019-05-05T12:21:59.283Z,11.70
2019-05-05T12:24:48.949Z,11.60
2019-05-05T12:27:26.902Z,11.50
2019-05-05T12:29:59.660Z,11.30
2019-05-05T12:32:28.382Z,11.30
2019-05-05T12:34:57.122Z,11.20
2019-05-05T12:37:25.840Z,11.30
2019-05-05T12:39:56.175Z,11.30
2019-05-05T12:42:24.951Z,11.30
2019-05-05T12:44:59.139Z,11.40
2019-05-05T12:47:50.019Z,11.40
2019-05-05T12:50:18.814Z,11.50
2019-05-05T12:52:47.526Z,11.70
2019-05-05T12:55:16.299Z,11.80
2019-05-05T12:57:45.089Z,11.90
2019-05-05T13:00:14.619Z,12.00
2019-05-05T13:02:44.196Z,12.10
2019-05-05T13:05:14.446Z,12.30
2019-05-05T13:07:44.149Z,12.50
2019-05-05T13:10:13.794Z,12.80
2019-05-05T13:12:43.719Z,12.90
2019-05-05T13:15:14.262Z,13.00
2019-05-05T13:17:43.766Z,13.00
2019-05-05T13:20:24.583Z,12.90
2019-05-05T13:23:04.112Z,12.60
2019-05-05T13:25:59.056Z,12.40
2019-05-05T13:28:25.858Z,12.40
2019-05-05T13:30:54.600Z,12.30
2019-05-05T13:33:24.651Z,12.40
2019-05-05T13:35:53.832Z,12.60
2019-05-05T13:38:23.973Z,12.70
2019-05-05T13:40:54.435Z,12.60
2019-05-05T13:43:42.494Z,12.50
2019-05-05T13:46:18.963Z,12.30
2019-05-05T13:48:47.855Z,12.30
2019-05-05T13:51:16.887Z,12.40
2019-05-05T13:53:45.610Z,12.50
2019-05-05T13:56:15.410Z,12.50
2019-05-05T13:58:44.534Z,12.70
2019-05-05T14:01:14.529Z,12.80
2019-05-05T14:03:44.712Z,12.70
2019-05-05T14:06:13.863Z,12.70
2019-05-05T14:08:44.602Z,12.60
2019-05-05T14:11:14.241Z,12.50
2019-05-05T14:13:45.515Z,12.50
2019-05-05T14:16:14.297Z,12.60
2019-05-05T14:18:43.407Z,12.50
2019-05-05T14:21:13.911Z,12.40
2019-05-05T14:24:00.764Z,12.30
2019-05-05T14:26:32.132Z,12.30
2019-05-05T14:28:59.962Z,12.10
2019-05-05T14:31:33.819Z,12.10
2019-05-05T14:34:04.532Z,12.10
2019-05-05T14:36:53.364Z,12.10
2019-05-05T14:39:23.788Z,11.90
2019-05-05T14:41:53.964Z,11.90
2019-05-05T14:44:24.018Z,11.70
2019-05-05T14:46:53.007Z,11.60
2019-05-05T14:49:21.735Z,11.40
2019-05-05T14:51:50.458Z,11.40
2019-05-05T14:54:19.279Z,11.30
2019-05-05T14:56:47.991Z,11.30
2019-05-05T14:59:16.714Z,11.20
2019-05-05T15:01:45.459Z,11.30
2019-05-05T15:04:15.962Z,11.30
2019-05-05T15:06:48.819Z,11.20
2019-05-05T15:09:35.610Z,11.20
2019-05-05T15:12:15.618Z,11.30
2019-05-05T15:14:44.362Z,11.30
2019-05-05T15:17:14.129Z,11.40
2019-05-05T15:19:43.574Z,11.40
2019-05-05T15:22:15.046Z,11.40
2019-05-05T15:24:46.541Z,11.40
2019-05-05T15:27:15.287Z,11.60
2019-05-05T15:29:44.010Z,11.90
2019-05-05T15:32:16.052Z,12.20
2019-05-05T15:34:44.878Z,12.10
2019-05-05T15:37:14.502Z,11.90
2019-05-05T15:39:44.139Z,11.70
2019-05-05T15:42:13.163Z,11.50
2019-05-05T15:44:43.773Z,11.70
2019-05-05T15:47:12.448Z,11.70
2019-05-05T15:49:41.220Z,11.80
2019-05-05T15:52:10.007Z,11.90
2019-05-05T15:54:38.735Z,11.90
2019-05-05T15:57:08.745Z,11.90
2019-05-05T15:59:37.944Z,11.90
2019-05-05T16:02:06.661Z,12.00
2019-05-05T16:04:35.655Z,11.90
2019-05-05T16:07:04.660Z,12.00
2019-05-05T16:09:33.504Z,12.10
2019-05-05T16:12:03.797Z,12.00
2019-05-05T16:14:34.412Z,12.00
2019-05-05T16:17:18.840Z,11.70
2019-05-05T16:19:57.079Z,11.50
2019-05-05T16:22:34.529Z,11.40
2019-05-05T16:25:20.607Z,11.20
2019-05-05T16:27:49.369Z,11.20
2019-05-05T16:30:18.115Z,11.00
2019-05-05T16:32:46.823Z,10.80
2019-05-05T16:35:15.579Z,10.70
2019-05-05T16:37:44.319Z,10.70
2019-05-05T16:40:14.470Z,10.60
2019-05-05T16:42:43.731Z,10.60
2019-05-05T16:45:13.679Z,10.60
2019-05-05T16:47:44.290Z,10.50
2019-05-05T16:50:13.641Z,10.60
2019-05-05T16:52:48.056Z,10.50
2019-05-05T16:55:26.144Z,10.40
2019-05-05T16:57:55.164Z,10.50
2019-05-05T17:00:25.811Z,10.60
2019-05-05T17:02:54.470Z,10.50
2019-05-05T17:05:24.099Z,10.50
2019-05-05T17:07:55.394Z,10.40
2019-05-05T17:10:24.416Z,10.30
2019-05-05T17:12:54.297Z,10.20
2019-05-05T17:15:35.210Z,10.10
2019-05-05T17:18:32.842Z,10.10
2019-05-05T17:21:05.480Z,10.10
2019-05-05T17:23:34.441Z,10.00
2019-05-05T17:26:03.163Z,10.00
2019-05-05T17:28:34.112Z,9.90
2019-05-05T17:31:02.935Z,9.90
2019-05-05T17:33:33.773Z,9.80
2019-05-05T17:36:02.100Z,9.70
2019-05-05T17:38:30.987Z,9.70
2019-05-05T17:41:10.961Z,9.80
2019-05-05T17:43:45.571Z,9.80
2019-05-05T17:46:20.417Z,9.90
2019-05-05T17:48:58.159Z,9.90
2019-05-05T17:51:49.431Z,9.90
2019-05-05T17:54:27.563Z,10.00
2019-05-05T17:56:56.346Z,10.10
2019-05-05T17:59:25.154Z,10.10
2019-05-05T18:01:54.138Z,10.10
2019-05-05T18:04:22.911Z,10.10
2019-05-05T18:07:14.369Z,10.00
2019-05-05T18:10:01.195Z,10.00
2019-05-05T18:12:57.434Z,9.90
2019-05-05T18:15:44.121Z,9.70
2019-05-05T18:21:44.899Z,9.40
2019-05-05T18:24:13.818Z,9.20
2019-05-05T18:26:43.537Z,9.10
2019-05-05T18:29:14.465Z,9.00
2019-05-05T18:31:43.046Z,9.00
2019-05-05T18:34:13.447Z,8.90
2019-05-05T18:36:44.395Z,8.80
2019-05-05T18:39:13.766Z,8.70
2019-05-05T18:41:51.343Z,8.60
2019-05-05T18:44:39.160Z,8.50
2019-05-05T18:47:18.361Z,8.50
2019-05-05T18:49:47.195Z,8.40
2019-05-05T18:52:15.991Z,8.40
2019-05-05T18:54:44.747Z,8.30
2019-05-05T18:57:13.467Z,8.30
2019-05-05T18:59:44.483Z,8.30
2019-05-05T19:02:24.017Z,8.30
2019-05-05T19:05:13.022Z,8.30
2019-05-05T19:07:55.265Z,8.30
2019-05-05T19:10:16.546Z,8.20
2019-05-05T19:12:45.299Z,8.20
2019-05-05T19:15:14.167Z,8.20
2019-05-05T19:17:42.951Z,8.20
2019-05-05T19:20:21.719Z,8.10
2019-05-05T19:22:54.332Z,8.10
2019-05-05T19:25:24.131Z,8.10
2019-05-05T19:27:55.754Z,8.10
2019-05-05T19:30:25.677Z,8.00
2019-05-05T19:32:54.643Z,8.00
2019-05-05T19:35:25.016Z,8.00
2019-05-05T19:37:54.080Z,8.00
2019-05-05T19:40:24.321Z,8.00
2019-05-05T19:42:53.851Z,7.90
2019-05-05T19:45:24.103Z,7.90
2019-05-05T19:47:53.215Z,7.90
2019-05-05T19:50:29.119Z,7.80
2019-05-05T19:52:57.839Z,7.80
2019-05-05T19:55:26.579Z,7.80
2019-05-05T19:57:55.311Z,7.80
2019-05-05T20:00:26.286Z,7.80
2019-05-05T20:03:03.803Z,7.80
2019-05-05T20:05:25.111Z,7.80
2019-05-05T20:07:55.335Z,7.80
2019-05-05T20:10:24.325Z,7.70
2019-05-05T20:12:54.059Z,7.70
2019-05-05T20:15:30.258Z,7.70
2019-05-05T20:17:59.048Z,7.60
2019-05-05T20:20:27.809Z,7.60
2019-05-05T20:22:56.523Z,7.60
2019-05-05T20:25:25.292Z,7.50
2019-05-05T20:28:14.532Z,7.40
2019-05-05T20:30:43.434Z,7.40
2019-05-05T20:33:19.207Z,7.30
2019-05-05T20:35:51.362Z,7.30
2019-05-05T20:38:25.887Z,7.20
2019-05-05T20:41:13.941Z,7.20
2019-05-05T20:43:44.516Z,7.10
2019-05-05T20:46:12.566Z,7.10
2019-05-05T20:48:41.485Z,7.00
2019-05-05T20:51:10.415Z,6.90
2019-05-05T20:53:39.156Z,6.90
2019-05-05T20:56:07.889Z,6.90
2019-05-05T20:58:36.596Z,6.80
2019-05-05T21:01:05.308Z,6.80
2019-05-05T21:03:34.802Z,6.70
2019-05-05T21:06:04.381Z,6.70
2019-05-05T21:08:34.851Z,6.70
2019-05-05T21:11:05.218Z,6.60
2019-05-05T21:13:34.363Z,6.50
2019-05-05T21:16:03.340Z,6.50
2019-05-05T21:18:34.517Z,6.50
2019-05-05T21:21:04.562Z,6.40
2019-05-05T21:23:37.338Z,6.40
2019-05-05T21:26:31.151Z,6.40
2019-05-05T21:28:59.911Z,6.40
2019-05-05T21:31:28.668Z,6.30
2019-05-05T21:33:57.398Z,6.30
2019-05-05T21:36:26.143Z,6.30
2019-05-05T21:38:55.014Z,6.30
2019-05-05T21:41:24.439Z,6.30
2019-05-05T21:43:54.108Z,6.30
2019-05-05T21:46:24.015Z,6.30
2019-05-05T21:48:54.310Z,6.30
2019-05-05T21:51:36.042Z,6.30
2019-05-05T21:54:23.522Z,6.30
2019-05-05T21:57:14.191Z,6.30
2019-05-05T21:59:55.244Z,6.30
2019-05-05T22:02:15.280Z,6.30
2019-05-05T22:04:44.234Z,6.40
2019-05-05T22:07:14.508Z,6.40
2019-05-05T22:09:43.338Z,6.40
2019-05-05T22:12:13.546Z,6.40
2019-05-05T22:14:43.955Z,6.50
2019-05-05T22:17:14.641Z,6.50
2019-05-05T22:19:53.722Z,6.50
2019-05-05T22:22:23.982Z,6.50
2019-05-05T22:24:54.036Z,6.50
2019-05-05T22:27:23.751Z,6.40
2019-05-05T22:29:55.354Z,6.40
2019-05-05T22:32:24.916Z,6.30
2019-05-05T22:34:53.535Z,6.30
2019-05-05T22:37:23.647Z,6.20
2019-05-05T22:39:54.201Z,6.10
2019-05-05T22:42:24.669Z,6.10
2019-05-05T22:44:53.383Z,6.00
2019-05-05T22:47:23.660Z,5.90
2019-05-05T22:49:53.936Z,5.80
2019-05-05T22:52:25.230Z,5.80
2019-05-05T22:54:53.366Z,5.70
2019-05-05T22:57:22.105Z,5.70
2019-05-05T22:59:50.843Z,5.70
2019-05-05T23:02:21.315Z,5.60
2019-05-05T23:04:59.348Z,5.60
2019-05-05T23:07:34.817Z,5.60
2019-05-05T23:10:04.602Z,5.50
2019-05-05T23:12:35.051Z,5.50
2019-05-05T23:15:04.943Z,5.50
2019-05-05T23:17:55.893Z,5.40
2019-05-05T23:21:07.480Z,5.40
2019-05-05T23:24:07.603Z,5.40
2019-05-05T23:26:38.144Z,5.30
2019-05-05T23:29:06.862Z,5.30
2019-05-05T23:31:35.608Z,5.20
2019-05-05T23:34:04.339Z,5.20
2019-05-05T23:36:34.009Z,5.10
2019-05-05T23:39:05.159Z,5.10
2019-05-05T23:41:34.825Z,5.10
2019-05-05T23:44:04.235Z,5.10
2019-05-05T23:46:34.798Z,5.10
2019-05-05T23:49:04.308Z,5.10
2019-05-05T23:51:34.754Z,5.10
2019-05-05T23:54:04.335Z,5.20
2019-05-05T23:56:34.985Z,5.20
2019-05-05T23:59:04.256Z,5.30
